Terminal Aerodrome Forecast
Issued by NWS

Home | Current Version | Previous Version | Text Only | Print | Product List | Glossary On
Versions: 1 2 3 4 5 6 7 8 9 10 11 12 13 14 15 16 17
000
FTUS44 KCRP 231740
TAFLRD
TAF
KLRD 231740Z 2318/2418 VRB04KT P6SM BKN020 OVC070
     FM232100 VRB04KT P6SM BKN030 OVC040
     FM240100 36008KT P6SM VCTS BKN035CB OVC060
      TEMPO 2401/2403 VRB20G40KT 5SM -TSRA OVC030CB
     FM240300 36012G16KT P6SM SCT030 BKN060
     FM240600 36010KT P6SM BKN060
     FM241200 36005KT P6SM SCT250=

USA.gov is the U.S. government's official web portal to all federal, state and local government web resources and services.